Time;durP1;ratioP1;P1;durP2;ratioP2;P2;SDS_P1;SDS_P2;PMS_P1;PMS_P2;Temp;Humidity;BMP_temperature;BMP_pressure;BME280_temperature;BME280_humidity;BME280_pressure;Samples;Min_cycle;Max_cycle;Signal;HPM_P1;HPM_P2
2020/12/21 00:00:16;;;;;;;9.53;5.30;;;9.10;96.10;;;;;;5033270;28;20497;-75
2020/12/21 00:02:45;;;;;;;10.90;6.40;;;9.10;95.90;;;;;;5041067;28;20209;-74
2020/12/21 00:05:11;;;;;;;11.00;6.20;;;9.10;95.90;;;;;;5030019;28;20428;-74
2020/12/21 00:07:36;;;;;;;9.60;5.80;;;9.10;95.90;;;;;;5029951;28;20434;-73
2020/12/21 00:10:06;;;;;;;10.20;5.60;;;9.10;96.00;;;;;;5028733;28;20292;-74
2020/12/21 00:12:32;;;;;;;13.90;7.10;;;9.00;96.00;;;;;;5032983;28;20232;-72
2020/12/21 00:14:59;;;;;;;14.77;7.47;;;9.00;96.10;;;;;;5039267;28;20478;-75
2020/12/21 00:17:24;;;;;;;10.47;6.10;;;9.00;96.20;;;;;;5042057;28;21192;-74
2020/12/21 00:19:50;;;;;;;9.43;5.50;;;9.00;96.30;;;;;;5043722;28;20522;-73
2020/12/21 00:22:17;;;;;;;8.43;5.47;;;9.00;96.40;;;;;;5041455;28;20229;-75
2020/12/21 00:24:44;;;;;;;8.57;5.10;;;9.00;96.30;;;;;;5042335;28;20211;-75
2020/12/21 00:27:10;;;;;;;10.00;5.10;;;9.00;96.20;;;;;;5043750;28;20501;-75
2020/12/21 00:29:36;;;;;;;8.93;4.83;;;9.00;96.10;;;;;;5031692;28;20770;-74
2020/12/21 00:32:02;;;;;;;8.27;4.50;;;9.00;96.00;;;;;;5025406;28;20517;-74
2020/12/21 00:34:28;;;;;;;6.47;3.70;;;9.00;95.90;;;;;;5041875;28;20251;-75
2020/12/21 00:36:54;;;;;;;7.13;4.03;;;9.10;95.80;;;;;;5043912;28;20197;-73
2020/12/21 00:39:21;;;;;;;8.00;3.97;;;9.10;95.50;;;;;;5042454;28;20192;-74
2020/12/21 00:41:47;;;;;;;5.87;3.03;;;9.10;95.30;;;;;;5043966;28;20512;-74
2020/12/21 00:44:14;;;;;;;9.93;3.27;;;9.10;95.30;;;;;;5042650;28;20437;-73
2020/12/21 00:46:40;;;;;;;6.83;3.00;;;9.20;95.10;;;;;;5043658;28;20424;-75
2020/12/21 00:49:06;;;;;;;7.10;3.30;;;9.20;94.80;;;;;;5043942;28;20547;-73
2020/12/21 00:51:32;;;;;;;4.67;2.50;;;9.20;94.80;;;;;;5043383;28;20205;-75
2020/12/21 00:53:57;;;;;;;4.07;2.10;;;9.20;94.70;;;;;;5043527;28;20427;-74
2020/12/21 00:56:24;;;;;;;4.93;2.60;;;9.20;94.60;;;;;;5043886;28;20184;-74
2020/12/21 00:58:50;;;;;;;10.70;5.00;;;9.20;94.50;;;;;;5045176;28;20193;-75
2020/12/21 01:01:22;;;;;;;9.07;4.40;;;9.30;94.50;;;;;;5042796;28;20436;-74
2020/12/21 01:03:48;;;;;;;9.50;4.37;;;9.30;94.80;;;;;;5043760;28;20455;-73
2020/12/21 01:06:15;;;;;;;10.47;5.90;;;9.40;94.80;;;;;;5043489;28;20424;-75
2020/12/21 01:08:40;;;;;;;8.67;5.10;;;9.40;94.90;;;;;;5043083;28;20431;-74
2020/12/21 01:11:13;;;;;;;10.17;5.20;;;9.30;95.10;;;;;;5043203;28;20444;-74
2020/12/21 01:13:39;;;;;;;10.40;5.60;;;9.40;95.00;;;;;;5043636;28;20415;-76
2020/12/21 01:16:06;;;;;;;7.93;4.63;;;9.30;94.80;;;;;;5041388;28;20448;-74
2020/12/21 01:18:31;;;;;;;8.93;4.37;;;9.30;94.90;;;;;;5027759;28;20452;-73
2020/12/21 01:20:57;;;;;;;9.97;4.60;;;9.30;94.90;;;;;;5035861;28;20453;-74
2020/12/21 01:23:23;;;;;;;7.27;4.20;;;9.20;95.10;;;;;;5040944;28;20232;-73
2020/12/21 01:25:49;;;;;;;8.27;3.90;;;9.20;95.10;;;;;;5046862;28;20436;-72
2020/12/21 01:28:15;;;;;;;7.90;4.00;;;9.20;95.20;;;;;;5033481;28;20204;-73
2020/12/21 01:30:40;;;;;;;8.73;3.63;;;9.20;95.20;;;;;;5028139;28;20223;-73
2020/12/21 01:33:06;;;;;;;7.90;4.00;;;9.20;95.30;;;;;;5036752;28;20196;-75
2020/12/21 01:35:32;;;;;;;7.87;4.10;;;9.20;95.40;;;;;;5036111;28;20220;-74
2020/12/21 01:37:57;;;;;;;8.93;4.57;;;9.20;95.50;;;;;;5047680;28;20245;-74
2020/12/21 01:40:23;;;;;;;7.23;4.20;;;9.20;95.50;;;;;;5036899;28;20229;-75
2020/12/21 01:42:49;;;;;;;7.30;3.80;;;9.20;95.60;;;;;;5032191;28;20232;-74
2020/12/21 01:45:15;;;;;;;7.87;3.80;;;9.20;95.80;;;;;;5031730;28;20219;-74
2020/12/21 01:47:41;;;;;;;6.37;3.67;;;9.20;95.60;;;;;;5032407;28;20181;-74
2020/12/21 01:50:07;;;;;;;4.80;2.80;;;9.10;95.60;;;;;;5033026;28;20200;-75
2020/12/21 01:52:33;;;;;;;7.20;4.17;;;9.10;95.80;;;;;;5033990;28;20444;-75
2020/12/21 01:55:00;;;;;;;7.40;4.00;;;9.10;95.80;;;;;;5032496;28;20939;-75
2020/12/21 01:57:27;;;;;;;7.30;4.20;;;9.00;95.90;;;;;;5032218;28;20499;-75
2020/12/21 01:59:53;;;;;;;8.27;4.50;;;8.90;95.90;;;;;;5031837;28;20424;-75
2020/12/21 02:02:18;;;;;;;21.23;9.77;;;8.90;95.90;;;;;;5032328;28;20494;-76
2020/12/21 02:04:45;;;;;;;17.10;9.90;;;8.80;96.00;;;;;;5031328;28;20208;-74
2020/12/21 02:07:15;;;;;;;19.03;11.20;;;8.70;96.00;;;;;;5032179;28;20271;-74
2020/12/21 02:09:42;;;;;;;19.20;10.90;;;8.60;96.10;;;;;;5032081;28;20430;-76
2020/12/21 02:12:09;;;;;;;18.13;10.50;;;8.50;96.10;;;;;;5032663;28;21114;-73
2020/12/21 02:14:35;;;;;;;18.40;10.37;;;8.40;96.30;;;;;;5029830;28;20448;-74
2020/12/21 02:17:00;;;;;;;20.30;10.17;;;8.40;96.30;;;;;;5025842;28;20429;-74
2020/12/21 02:19:27;;;;;;;22.00;12.67;;;8.30;96.50;;;;;;5024283;28;20193;-74
2020/12/21 02:21:52;;;;;;;22.37;13.17;;;8.20;96.50;;;;;;5024094;28;20218;-75
2020/12/21 02:24:18;;;;;;;27.10;14.77;;;8.10;96.90;;;;;;5032640;28;20432;-75
2020/12/21 02:26:44;;;;;;;32.67;17.20;;;8.10;96.90;;;;;;5030328;28;20225;-75
2020/12/21 02:29:10;;;;;;;29.70;16.03;;;8.00;96.90;;;;;;5033411;28;20219;-76
2020/12/21 02:31:35;;;;;;;25.70;13.23;;;7.90;96.90;;;;;;5036451;28;20237;-74
2020/12/21 02:34:02;;;;;;;26.93;14.07;;;7.80;97.20;;;;;;5031156;28;20189;-74
2020/12/21 02:36:27;;;;;;;12.23;7.23;;;7.70;97.30;;;;;;5030749;28;20431;-73
2020/12/21 02:38:53;;;;;;;11.47;6.60;;;7.70;97.40;;;;;;5030981;28;20457;-74
2020/12/21 02:41:20;;;;;;;9.20;4.90;;;7.70;97.60;;;;;;5031088;28;20201;-74
2020/12/21 02:43:46;;;;;;;8.23;3.97;;;7.60;97.80;;;;;;5010920;28;20232;-74
2020/12/21 02:46:15;;;;;;;8.10;4.10;;;7.60;98.00;;;;;;5014322;28;20443;-73
2020/12/21 02:48:41;;;;;;;8.63;4.10;;;7.60;98.10;;;;;;5044261;28;20420;-74
2020/12/21 02:51:07;;;;;;;9.07;4.13;;;7.60;98.30;;;;;;5036872;28;20535;-74
2020/12/21 02:53:33;;;;;;;29.73;15.63;;;7.60;98.30;;;;;;5025281;28;20799;-74
2020/12/21 02:55:59;;;;;;;28.30;14.40;;;7.60;98.30;;;;;;5015664;28;21028;-73
2020/12/21 02:58:25;;;;;;;26.23;14.40;;;7.50;98.20;;;;;;5029522;28;20432;-74
2020/12/21 03:00:50;;;;;;;23.10;12.40;;;7.50;98.30;;;;;;5031281;28;20213;-74
2020/12/21 03:03:17;;;;;;;20.40;10.90;;;7.50;98.30;;;;;;5024855;28;20463;-74
2020/12/21 03:05:43;;;;;;;20.80;11.30;;;7.50;98.40;;;;;;5025049;28;20182;-74
2020/12/21 03:08:10;;;;;;;26.07;14.30;;;7.40;98.40;;;;;;5030473;28;20422;-75
2020/12/21 03:10:38;;;;;;;24.10;14.17;;;7.30;98.50;;;;;;5030129;28;20439;-74
2020/12/21 03:13:04;;;;;;;24.40;14.03;;;7.30;98.70;;;;;;5030848;28;20420;-74
2020/12/21 03:15:30;;;;;;;26.20;15.40;;;7.30;98.70;;;;;;5016257;28;20421;-74
2020/12/21 03:17:56;;;;;;;26.47;14.60;;;7.20;98.70;;;;;;5029181;28;20981;-74
2020/12/21 03:20:22;;;;;;;28.37;15.40;;;7.20;98.70;;;;;;5027129;28;20517;-74
2020/12/21 03:22:48;;;;;;;23.13;13.03;;;7.20;98.60;;;;;;5010585;28;20296;-74
2020/12/21 03:25:16;;;;;;;19.30;10.63;;;7.20;98.60;;;;;;5009550;28;20511;-74
2020/12/21 03:27:42;;;;;;;25.27;13.37;;;7.10;98.60;;;;;;5019376;28;20255;-75
2020/12/21 03:30:09;;;;;;;25.50;12.03;;;7.10;98.70;;;;;;5029880;28;20506;-75
2020/12/21 03:32:35;;;;;;;17.10;9.80;;;7.00;98.90;;;;;;5030829;28;20444;-74
2020/12/21 03:35:01;;;;;;;18.60;7.50;;;6.90;99.00;;;;;;5033602;28;21107;-74
2020/12/21 03:37:27;;;;;;;18.10;9.73;;;6.90;99.10;;;;;;5034191;28;20430;-75
2020/12/21 03:39:53;;;;;;;15.20;8.90;;;6.90;99.30;;;;;;5033162;28;20424;-75
2020/12/21 03:42:19;;;;;;;15.70;7.07;;;6.90;99.30;;;;;;5030886;28;20459;-74
2020/12/21 03:44:44;;;;;;;15.57;8.23;;;6.80;99.30;;;;;;5028288;28;20287;-74
2020/12/21 03:47:10;;;;;;;12.00;6.73;;;6.80;99.30;;;;;;5030240;28;20480;-74
2020/12/21 03:49:36;;;;;;;13.37;6.63;;;6.80;99.30;;;;;;5029817;28;20257;-75
2020/12/21 03:52:02;;;;;;;10.50;6.30;;;6.80;99.30;;;;;;5029951;28;20448;-74
2020/12/21 03:54:28;;;;;;;10.93;6.40;;;6.70;99.40;;;;;;5027846;28;20266;-74
2020/12/21 03:56:53;;;;;;;10.90;5.80;;;6.70;99.40;;;;;;5028376;28;20523;-74
2020/12/21 03:59:19;;;;;;;10.67;5.93;;;6.70;99.40;;;;;;5029310;28;20196;-74
2020/12/21 04:01:45;;;;;;;11.17;5.90;;;6.70;99.40;;;;;;5029734;28;20838;-75
2020/12/21 04:04:11;;;;;;;9.60;5.33;;;6.60;99.50;;;;;;5029626;28;20185;-73
2020/12/21 04:06:37;;;;;;;10.83;5.37;;;6.60;99.60;;;;;;5030022;28;20246;-75
2020/12/21 04:09:05;;;;;;;8.17;5.17;;;6.60;99.70;;;;;;5028305;28;20570;-72
2020/12/21 04:11:31;;;;;;;12.30;5.83;;;6.60;99.90;;;;;;5028247;28;20435;-72
2020/12/21 04:13:57;;;;;;;8.10;4.70;;;6.50;99.90;;;;;;5026524;28;20945;-73
2020/12/21 04:16:23;;;;;;;9.57;5.40;;;6.50;99.90;;;;;;5019019;28;20238;-72
2020/12/21 04:18:49;;;;;;;11.53;6.53;;;6.50;99.90;;;;;;5027874;28;20189;-74
2020/12/21 04:21:15;;;;;;;9.27;5.30;;;6.40;99.90;;;;;;5029567;28;20244;-73
2020/12/21 04:23:41;;;;;;;13.03;5.03;;;6.40;99.90;;;;;;5028851;28;20247;-74
2020/12/21 04:26:07;;;;;;;10.07;5.50;;;6.40;99.90;;;;;;5027629;28;20428;-74
2020/12/21 04:28:34;;;;;;;12.90;6.80;;;6.40;99.90;;;;;;5027942;28;20428;-74
2020/12/21 04:31:03;;;;;;;19.03;9.87;;;6.40;99.90;;;;;;5029831;28;20855;-73
2020/12/21 04:33:30;;;;;;;21.23;12.20;;;6.40;99.90;;;;;;5028821;28;20427;-72
2020/12/21 04:35:56;;;;;;;28.93;13.03;;;6.40;99.90;;;;;;5028535;28;20432;-71
2020/12/21 04:38:22;;;;;;;16.83;10.37;;;6.40;99.90;;;;;;5028620;28;20481;-72
2020/12/21 04:40:56;;;;;;;19.87;9.83;;;6.50;99.90;;;;;;5025186;28;20424;-73
2020/12/21 04:43:23;;;;;;;24.60;13.60;;;6.50;99.90;;;;;;5027766;28;20484;-72
2020/12/21 04:45:53;;;;;;;25.50;13.00;;;6.50;99.90;;;;;;5027054;28;20424;-75
2020/12/21 04:48:22;;;;;;;26.20;14.40;;;6.50;99.90;;;;;;5027649;28;20423;-74
2020/12/21 04:50:55;;;;;;;26.67;14.67;;;6.60;99.90;;;;;;5027928;28;21008;-73
2020/12/21 04:53:21;;;;;;;21.90;13.03;;;6.50;99.90;;;;;;5029229;28;20477;-73
2020/12/21 04:55:47;;;;;;;26.13;13.63;;;6.60;99.90;;;;;;5028397;28;20427;-74
2020/12/21 04:58:15;;;;;;;24.10;14.37;;;6.50;99.90;;;;;;5030373;28;20427;-74
2020/12/21 05:00:40;;;;;;;27.73;14.77;;;6.50;99.90;;;;;;5032855;28;20453;-74
2020/12/21 05:03:07;;;;;;;24.30;14.73;;;6.50;99.90;;;;;;5015158;28;20582;-74
2020/12/21 05:05:41;;;;;;;25.43;13.00;;;6.60;99.90;;;;;;5026342;28;20208;-72
2020/12/21 05:08:08;;;;;;;27.00;14.37;;;6.60;99.90;;;;;;5025328;28;20430;-71
2020/12/21 05:10:36;;;;;;;22.53;12.37;;;6.60;99.80;;;;;;5013654;28;20770;-73
2020/12/21 05:13:03;;;;;;;22.50;11.30;;;6.60;99.80;;;;;;5022259;28;20477;-73
2020/12/21 05:15:30;;;;;;;16.50;9.90;;;6.60;99.60;;;;;;5026091;28;20445;-74
2020/12/21 05:18:26;;;;;;;18.83;9.90;;;6.70;99.60;;;;;;5023612;28;20428;-73
2020/12/21 05:21:03;;;;;;;11.23;6.60;;;6.70;99.50;;;;;;5024984;28;20516;-73
2020/12/21 05:23:29;;;;;;;12.70;7.00;;;6.70;99.30;;;;;;5031675;28;21351;-73
2020/12/21 05:26:12;;;;;;;11.40;6.50;;;6.60;99.20;;;;;;5014483;28;20516;-73
2020/12/21 05:28:40;;;;;;;11.87;6.17;;;6.70;99.20;;;;;;5011124;28;20488;-71
2020/12/21 05:31:08;;;;;;;13.90;6.50;;;6.70;99.10;;;;;;5012877;28;20445;-72
2020/12/21 05:33:39;;;;;;;9.23;5.80;;;6.70;99.10;;;;;;5036762;28;21204;-72
2020/12/21 05:36:13;;;;;;;13.40;7.03;;;6.70;99.10;;;;;;5034929;28;20797;-73
2020/12/21 05:38:40;;;;;;;12.20;7.20;;;6.70;99.00;;;;;;5032470;28;20452;-72
2020/12/21 05:41:07;;;;;;;11.30;6.20;;;6.70;99.00;;;;;;5032120;28;20859;-73
2020/12/21 05:43:33;;;;;;;14.13;6.27;;;6.80;99.10;;;;;;5031417;28;20551;-73
2020/12/21 05:46:02;;;;;;;14.97;7.10;;;6.80;99.10;;;;;;5031303;28;20432;-74
2020/12/21 05:48:32;;;;;;;10.73;6.40;;;6.90;99.00;;;;;;5031724;28;20200;-75
2020/12/21 05:51:01;;;;;;;10.20;6.90;;;6.90;99.00;;;;;;5031985;28;20440;-74
2020/12/21 05:53:42;;;;;;;12.23;6.37;;;6.90;98.90;;;;;;5032435;28;20419;-74
2020/12/21 05:56:09;;;;;;;21.30;12.03;;;7.00;98.90;;;;;;5029780;28;20430;-74
2020/12/21 05:58:37;;;;;;;25.20;13.97;;;7.00;98.70;;;;;;5011545;28;21050;-74
2020/12/21 06:01:09;;;;;;;21.53;13.07;;;7.00;98.60;;;;;;5011235;28;20460;-73
2020/12/21 06:03:47;;;;;;;27.20;15.30;;;7.00;98.30;;;;;;5022895;28;20463;-72
2020/12/21 06:06:18;;;;;;;33.90;16.20;;;6.90;98.30;;;;;;5030959;28;21012;-73
2020/12/21 06:08:46;;;;;;;33.13;16.23;;;6.90;98.20;;;;;;5017139;28;20425;-74
2020/12/21 06:11:24;;;;;;;26.47;14.10;;;6.80;98.30;;;;;;5025449;28;20520;-74
2020/12/21 06:14:15;;;;;;;25.70;14.80;;;6.90;98.30;;;;;;5022906;28;20431;-75
2020/12/21 06:16:42;;;;;;;28.27;14.53;;;6.90;98.20;;;;;;5030849;28;20515;-71
2020/12/21 06:19:22;;;;;;;25.97;13.83;;;6.90;98.00;;;;;;5032088;28;20594;-75
2020/12/21 06:21:50;;;;;;;23.57;12.00;;;6.90;97.80;;;;;;5031904;28;20489;-74
2020/12/21 06:24:22;;;;;;;24.20;14.23;;;6.90;97.60;;;;;;5029437;28;20867;-74
2020/12/21 06:26:48;;;;;;;24.43;12.40;;;6.90;97.60;;;;;;5030179;28;20424;-73
2020/12/21 06:29:16;;;;;;;25.13;12.47;;;6.90;97.60;;;;;;5030933;28;20416;-74
2020/12/21 06:32:06;;;;;;;15.47;7.80;;;7.00;97.60;;;;;;5030529;28;20467;-72
2020/12/21 06:34:34;;;;;;;12.20;7.00;;;6.90;97.40;;;;;;5017038;28;20511;-72
2020/12/21 06:37:11;;;;;;;10.77;6.63;;;6.80;97.40;;;;;;5014308;28;20433;-74
2020/12/21 06:39:38;;;;;;;11.60;6.67;;;6.80;97.60;;;;;;5031043;28;20507;-73
2020/12/21 06:42:09;;;;;;;13.43;7.30;;;6.80;97.70;;;;;;5025110;28;20470;-74
2020/12/21 06:44:38;;;;;;;11.70;7.00;;;6.80;97.90;;;;;;5024461;28;20843;-72
2020/12/21 06:47:07;;;;;;;11.77;6.47;;;6.80;97.90;;;;;;5030280;28;20432;-74
2020/12/21 06:49:34;;;;;;;17.17;6.60;;;6.90;97.90;;;;;;5047384;28;20480;-74
2020/12/21 06:52:00;;;;;;;12.50;7.20;;;6.90;97.90;;;;;;5039153;28;20451;-74
2020/12/21 06:54:25;;;;;;;13.27;7.03;;;6.80;97.80;;;;;;5037579;28;20435;-72
2020/12/21 06:56:51;;;;;;;15.40;8.50;;;6.80;97.90;;;;;;5031837;28;20199;-73
2020/12/21 06:59:19;;;;;;;18.37;9.17;;;6.80;97.80;;;;;;5032226;28;20181;-72
2020/12/21 07:01:50;;;;;;;20.97;10.87;;;6.80;97.80;;;;;;5033188;28;20487;-72
2020/12/21 07:04:18;;;;;;;17.37;9.90;;;6.80;97.80;;;;;;5032334;28;20903;-74
2020/12/21 07:06:45;;;;;;;22.73;9.40;;;6.80;98.00;;;;;;5032985;28;20435;-75
2020/12/21 07:09:12;;;;;;;19.30;9.20;;;6.80;97.90;;;;;;5016793;28;20457;-73
2020/12/21 07:11:42;;;;;;;16.13;8.00;;;6.80;97.90;;;;;;5010100;28;20836;-74
2020/12/21 07:14:11;;;;;;;15.60;8.30;;;6.90;98.00;;;;;;5027410;28;20948;-74
2020/12/21 07:16:38;;;;;;;13.77;8.27;;;6.90;98.00;;;;;;5031534;28;20443;-76
2020/12/21 07:19:03;;;;;;;12.53;7.80;;;6.90;97.90;;;;;;5031342;28;20420;-76
2020/12/21 07:21:31;;;;;;;14.50;7.50;;;7.00;97.80;;;;;;5031297;28;20989;-73
2020/12/21 07:23:57;;;;;;;16.27;8.67;;;7.00;97.80;;;;;;5032401;28;20209;-73
2020/12/21 07:26:25;;;;;;;15.17;7.77;;;7.00;97.80;;;;;;5029962;28;20423;-73
2020/12/21 07:28:51;;;;;;;13.57;7.40;;;7.00;97.80;;;;;;5028624;28;20511;-74
2020/12/21 07:31:21;;;;;;;14.77;7.03;;;7.00;97.70;;;;;;5030282;28;20534;-73
2020/12/21 07:33:58;;;;;;;22.40;10.67;;;7.00;97.60;;;;;;5029785;28;20189;-72
2020/12/21 07:36:29;;;;;;;26.37;13.80;;;7.10;97.50;;;;;;5029404;28;20423;-73
2020/12/21 07:39:05;;;;;;;27.40;12.63;;;7.10;97.30;;;;;;5030190;28;20525;-73
2020/12/21 07:41:33;;;;;;;23.07;13.10;;;7.00;97.10;;;;;;5030533;28;20439;-73
2020/12/21 07:44:09;;;;;;;25.67;13.77;;;6.90;97.20;;;;;;5028152;28;20662;-73
2020/12/21 07:46:44;;;;;;;26.57;12.77;;;6.90;97.20;;;;;;5029868;28;20422;-73
2020/12/21 07:49:11;;;;;;;28.50;13.43;;;6.90;97.10;;;;;;5029296;28;20423;-73
2020/12/21 07:51:41;;;;;;;25.13;12.57;;;6.90;97.10;;;;;;5011810;28;20518;-72
2020/12/21 07:54:07;;;;;;;26.00;12.83;;;6.90;97.20;;;;;;5021219;28;20435;-73
2020/12/21 07:56:33;;;;;;;23.90;12.20;;;6.90;97.30;;;;;;5028601;28;20535;-75
2020/12/21 07:59:09;;;;;;;21.17;11.40;;;6.90;97.40;;;;;;5034767;28;21266;-73
2020/12/21 08:01:36;;;;;;;18.63;10.20;;;6.90;97.40;;;;;;5030478;28;20435;-72
2020/12/21 08:04:12;;;;;;;27.03;9.63;;;6.90;97.20;;;;;;5030628;28;20435;-72
2020/12/21 08:06:38;;;;;;;14.97;9.00;;;6.90;97.20;;;;;;5036916;28;20785;-73
2020/12/21 08:09:07;;;;;;;17.63;8.43;;;6.80;96.70;;;;;;5028088;28;20444;-72
2020/12/21 08:11:34;;;;;;;13.97;8.63;;;6.90;96.40;;;;;;5040586;28;20464;-74
2020/12/21 08:14:00;;;;;;;16.80;9.23;;;6.90;96.20;;;;;;5046231;28;20415;-78
2020/12/21 08:16:26;;;;;;;22.40;9.77;;;7.00;96.20;;;;;;5045398;28;20450;-76
2020/12/21 08:18:52;;;;;;;16.63;7.80;;;7.10;96.20;;;;;;5040636;28;20204;-78
2020/12/21 08:21:25;;;;;;;18.23;8.97;;;7.20;95.80;;;;;;5053037;28;20457;-77
2020/12/21 08:23:58;;;;;;;13.57;7.33;;;7.20;95.20;;;;;;5037198;28;20497;-76
2020/12/21 08:26:25;;;;;;;16.50;8.30;;;7.30;95.10;;;;;;5042157;28;20836;-77
2020/12/21 08:28:52;;;;;;;10.73;6.57;;;7.30;94.90;;;;;;5041297;28;20424;-76
2020/12/21 08:31:23;;;;;;;10.73;6.60;;;7.40;94.60;;;;;;5029752;28;20452;-76
2020/12/21 08:34:15;;;;;;;13.80;8.20;;;7.40;93.90;;;;;;5042628;28;20455;-77
2020/12/21 08:36:41;;;;;;;14.70;7.17;;;7.30;93.40;;;;;;5043979;28;20435;-79
2020/12/21 08:39:18;;;;;;;17.27;8.00;;;7.30;93.30;;;;;;5039617;28;20792;-78
2020/12/21 08:42:04;;;;;;;13.77;7.13;;;7.30;93.20;;;;;;5028930;28;20439;-78
2020/12/21 08:44:30;;;;;;;13.73;8.10;;;7.30;93.40;;;;;;5004927;28;712531;-77
2020/12/21 08:46:57;;;;;;;16.17;7.90;;;7.30;93.30;;;;;;5028347;28;20505;-73
2020/12/21 08:49:25;;;;;;;12.17;7.90;;;7.40;93.40;;;;;;5029297;28;20502;-76
2020/12/21 08:51:52;;;;;;;13.97;7.80;;;7.30;93.20;;;;;;5029895;28;20451;-74
2020/12/21 08:54:18;;;;;;;14.50;7.00;;;7.40;93.40;;;;;;5028061;28;20834;-75
2020/12/21 08:56:53;;;;;;;12.53;7.20;;;7.40;93.30;;;;;;5021675;28;20456;-73
2020/12/21 08:59:19;;;;;;;11.40;7.40;;;7.40;93.20;;;;;;5027672;28;20438;-73
2020/12/21 09:01:46;;;;;;;19.13;8.67;;;7.40;93.40;;;;;;5021128;28;20445;-73
2020/12/21 09:04:12;;;;;;;15.80;8.20;;;7.50;93.20;;;;;;5031592;28;20424;-74
2020/12/21 09:06:38;;;;;;;15.23;7.73;;;7.50;93.10;;;;;;5030933;28;20424;-74
2020/12/21 09:09:05;;;;;;;17.50;7.93;;;7.50;93.10;;;;;;5028701;28;20424;-73
2020/12/21 09:11:31;;;;;;;17.73;9.20;;;7.50;92.90;;;;;;5028892;28;20811;-72
2020/12/21 09:13:57;;;;;;;17.23;8.27;;;7.50;93.10;;;;;;5029068;28;20427;-74
2020/12/21 09:16:28;;;;;;;18.20;8.50;;;7.60;93.30;;;;;;5030753;28;20511;-74
2020/12/21 09:18:55;;;;;;;22.63;8.97;;;7.70;93.40;;;;;;5028163;28;20539;-73
2020/12/21 09:21:28;;;;;;;11.90;7.57;;;7.70;93.00;;;;;;5029091;28;20489;-74
2020/12/21 09:23:59;;;;;;;13.27;7.23;;;7.70;92.80;;;;;;5041069;28;20855;-73
2020/12/21 09:26:25;;;;;;;15.07;7.80;;;7.80;92.80;;;;;;5030166;28;20949;-73
2020/12/21 09:28:53;;;;;;;11.73;7.30;;;7.90;92.90;;;;;;5032121;28;20431;-73
2020/12/21 09:31:20;;;;;;;15.47;7.90;;;8.00;92.60;;;;;;5033849;28;20479;-72
2020/12/21 09:33:50;;;;;;;14.50;8.00;;;8.00;92.50;;;;;;5027444;28;20436;-74
2020/12/21 09:36:17;;;;;;;17.23;7.60;;;8.20;92.20;;;;;;5028240;28;20497;-74
2020/12/21 09:38:44;;;;;;;12.00;6.60;;;8.30;91.80;;;;;;5028256;28;20427;-73
2020/12/21 09:41:15;;;;;;;13.40;6.90;;;8.40;91.60;;;;;;5028635;28;20586;-74
2020/12/21 09:43:42;;;;;;;17.57;7.87;;;8.50;91.20;;;;;;5028844;28;20475;-73
2020/12/21 09:46:08;;;;;;;15.80;7.70;;;8.50;91.00;;;;;;5034096;28;20420;-74
2020/12/21 09:48:34;;;;;;;11.37;6.67;;;8.60;90.60;;;;;;5032546;28;20519;-73
2020/12/21 09:51:00;;;;;;;13.80;7.03;;;8.60;90.40;;;;;;5032040;28;20436;-73
2020/12/21 09:53:26;;;;;;;12.03;6.20;;;8.60;90.40;;;;;;5032529;28;20281;-74
2020/12/21 09:55:51;;;;;;;14.43;5.80;;;8.70;90.20;;;;;;5030485;28;20678;-76
2020/12/21 09:58:18;;;;;;;10.97;6.30;;;8.80;89.70;;;;;;5032770;28;20690;-75
2020/12/21 10:00:43;;;;;;;14.63;5.43;;;8.80;89.30;;;;;;5031067;28;20193;-75
2020/12/21 10:03:09;;;;;;;9.47;5.00;;;8.90;88.70;;;;;;5032174;28;20475;-74
2020/12/21 10:05:35;;;;;;;9.73;4.70;;;9.00;88.00;;;;;;5032054;28;20207;-76
2020/12/21 10:08:00;;;;;;;10.23;4.73;;;9.00;87.00;;;;;;5025526;28;20186;-75
2020/12/21 10:10:26;;;;;;;8.57;4.63;;;9.00;87.00;;;;;;5026123;28;20326;-74
2020/12/21 10:12:52;;;;;;;9.73;5.07;;;9.10;87.00;;;;;;5012700;28;20230;-75
2020/12/21 10:15:18;;;;;;;10.70;6.07;;;9.10;86.00;;;;;;5011835;28;20563;-74
2020/12/21 10:17:43;;;;;;;11.93;4.13;;;9.20;86.50;;;;;;5032282;28;20224;-72
2020/12/21 10:20:09;;;;;;;9.60;5.53;;;9.20;85.90;;;;;;5032385;28;20202;-74
2020/12/21 10:22:35;;;;;;;10.30;4.53;;;9.30;85.60;;;;;;5032580;28;20255;-75
2020/12/21 10:25:01;;;;;;;9.60;4.37;;;9.40;85.30;;;;;;5031815;28;20193;-75
2020/12/21 10:27:29;;;;;;;9.83;4.20;;;9.50;85.30;;;;;;5032969;28;20181;-76
2020/12/21 10:29:54;;;;;;;10.37;3.93;;;9.50;85.00;;;;;;5032078;28;20177;-74
2020/12/21 10:32:20;;;;;;;8.13;4.00;;;9.50;84.40;;;;;;5032073;28;20446;-73
2020/12/21 10:34:46;;;;;;;9.07;4.30;;;9.50;84.40;;;;;;5031596;28;20617;-76
2020/12/21 10:37:11;;;;;;;10.87;4.07;;;9.60;84.30;;;;;;5030594;28;20242;-74
2020/12/21 10:39:37;;;;;;;9.30;3.83;;;9.60;83.70;;;;;;5030317;28;20197;-74
2020/12/21 10:42:07;;;;;;;10.63;3.40;;;9.60;83.70;;;;;;5025893;28;20213;-75
2020/12/21 10:44:33;;;;;;;11.23;3.67;;;9.50;83.10;;;;;;5010257;28;20264;-74
2020/12/21 10:46:59;;;;;;;6.93;3.63;;;9.40;83.80;;;;;;5026004;28;20435;-75
2020/12/21 10:49:26;;;;;;;16.03;3.70;;;9.30;83.30;;;;;;5016372;28;20516;-75
2020/12/21 10:51:51;;;;;;;12.40;3.53;;;9.20;83.70;;;;;;5029181;28;20440;-76
2020/12/21 10:54:17;;;;;;;8.63;3.47;;;9.20;84.60;;;;;;5026843;28;20788;-76
2020/12/21 10:56:43;;;;;;;11.73;3.97;;;9.20;85.00;;;;;;5031467;28;20231;-76
2020/12/21 10:59:09;;;;;;;8.30;3.40;;;9.20;85.20;;;;;;5033500;28;20515;-74
2020/12/21 11:01:34;;;;;;;9.10;3.97;;;9.10;85.20;;;;;;5022414;28;20321;-75
2020/12/21 11:04:00;;;;;;;13.23;3.97;;;9.20;85.50;;;;;;5022760;28;20235;-74
2020/12/21 11:06:26;;;;;;;8.80;3.80;;;9.10;85.30;;;;;;5021208;28;20189;-76
2020/12/21 11:08:52;;;;;;;9.13;3.90;;;9.10;85.70;;;;;;5031345;28;20188;-75
2020/12/21 11:11:28;;;;;;;5.87;3.17;;;9.10;85.60;;;;;;5013800;28;20448;-73
2020/12/21 11:13:55;;;;;;;10.93;3.77;;;9.20;85.60;;;;;;5028663;28;20427;-75
2020/12/21 11:16:22;;;;;;;16.47;4.03;;;9.20;85.70;;;;;;5026823;28;20427;-75
2020/12/21 11:18:48;;;;;;;8.70;3.90;;;9.20;85.70;;;;;;5013352;28;20523;-73
2020/12/21 11:21:15;;;;;;;9.80;4.03;;;9.20;86.00;;;;;;5007409;28;20452;-75
2020/12/21 11:23:42;;;;;;;8.70;4.60;;;9.20;85.90;;;;;;5020045;28;20507;-74
2020/12/21 11:26:08;;;;;;;8.67;4.00;;;9.20;86.50;;;;;;5021045;28;20772;-75
2020/12/21 11:28:34;;;;;;;9.80;3.80;;;9.20;86.20;;;;;;5020354;28;20515;-76
2020/12/21 11:30:59;;;;;;;8.43;4.13;;;9.30;86.20;;;;;;5026930;28;20542;-75
2020/12/21 11:33:25;;;;;;;12.00;4.97;;;9.30;86.30;;;;;;5027414;28;20300;-74
2020/12/21 11:35:51;;;;;;;9.43;4.30;;;9.30;86.60;;;;;;5027763;28;20213;-75
2020/12/21 11:38:17;;;;;;;9.17;4.57;;;9.40;86.50;;;;;;5027266;28;20467;-75
2020/12/21 11:40:43;;;;;;;8.97;3.83;;;9.40;86.50;;;;;;5025854;28;20523;-75
2020/12/21 11:43:09;;;;;;;10.27;4.30;;;9.40;86.50;;;;;;5029519;28;20224;-75
2020/12/21 11:45:35;;;;;;;8.30;4.20;;;9.30;86.50;;;;;;5039152;28;20432;-73
2020/12/21 11:48:01;;;;;;;12.97;4.03;;;9.30;86.90;;;;;;5029640;28;20419;-75
2020/12/21 11:50:27;;;;;;;14.33;4.70;;;9.30;86.90;;;;;;5031113;28;20927;-75
2020/12/21 11:52:53;;;;;;;7.73;3.70;;;9.30;87.00;;;;;;5029684;28;20211;-75
2020/12/21 11:55:19;;;;;;;10.30;3.90;;;9.20;87.30;;;;;;5029230;28;21215;-75
2020/12/21 11:57:45;;;;;;;11.23;4.03;;;9.10;87.30;;;;;;5018830;28;20437;-74
2020/12/21 12:00:11;;;;;;;10.00;3.77;;;9.10;88.00;;;;;;5023584;28;20437;-74
2020/12/21 12:02:36;;;;;;;8.50;3.97;;;9.20;88.00;;;;;;5011654;28;20210;-74
2020/12/21 12:05:03;;;;;;;7.37;4.30;;;9.30;88.10;;;;;;5019131;28;20189;-74
2020/12/21 12:07:29;;;;;;;9.63;4.13;;;9.40;88.30;;;;;;5022978;28;20285;-74
2020/12/21 12:09:55;;;;;;;9.23;4.03;;;9.50;88.10;;;;;;5026680;28;20861;-74
2020/12/21 12:12:20;;;;;;;7.90;4.20;;;9.60;87.80;;;;;;5028009;28;20258;-75
2020/12/21 12:14:46;;;;;;;6.60;3.00;;;9.60;87.80;;;;;;5029143;28;20228;-73
2020/12/21 12:17:12;;;;;;;9.80;3.50;;;9.70;87.40;;;;;;5026944;28;20271;-75
2020/12/21 12:19:38;;;;;;;11.30;4.30;;;9.80;87.00;;;;;;5027676;28;20498;-74
2020/12/21 12:22:03;;;;;;;6.70;3.87;;;9.80;86.80;;;;;;5023423;28;21017;-74
2020/12/21 12:24:29;;;;;;;7.57;3.60;;;9.80;87.10;;;;;;5025427;28;20768;-74
2020/12/21 12:26:55;;;;;;;6.43;3.53;;;9.80;87.70;;;;;;5013818;28;20190;-75
2020/12/21 12:29:21;;;;;;;7.90;4.13;;;9.70;88.00;;;;;;5018002;28;20182;-74
2020/12/21 12:31:47;;;;;;;10.20;4.30;;;9.70;88.90;;;;;;5035945;28;20803;-75
2020/12/21 12:34:13;;;;;;;7.13;3.47;;;9.60;89.60;;;;;;5026881;28;20664;-74
2020/12/21 12:36:41;;;;;;;5.93;3.40;;;9.60;89.30;;;;;;5012636;28;20289;-75
2020/12/21 12:39:07;;;;;;;8.40;3.73;;;9.60;89.00;;;;;;5024500;28;20427;-74
2020/12/21 12:41:38;;;;;;;6.20;3.20;;;9.70;89.20;;;;;;5032334;28;20447;-75
2020/12/21 12:44:04;;;;;;;7.07;3.20;;;9.80;89.20;;;;;;5036357;28;20585;-75
2020/12/21 12:46:30;;;;;;;9.03;4.10;;;9.90;88.10;;;;;;5031117;28;20558;-75
2020/12/21 12:48:56;;;;;;;9.27;3.23;;;10.00;88.10;;;;;;5027147;28;20543;-75